createdAt,value
2022-10-11T00:00:58.336Z,101566.91
2022-10-11T00:03:26.241Z,101584.38
2022-10-11T00:05:54.737Z,101581.22
2022-10-11T00:08:22.830Z,101588.06
2022-10-11T00:11:00.814Z,101586.28
2022-10-11T00:13:29.598Z,101597.34
2022-10-11T00:15:58.705Z,101597.22
2022-10-11T00:18:26.927Z,101599.63
2022-10-11T00:21:03.217Z,101606.81
2022-10-11T00:23:31.107Z,101617.28
2022-10-11T00:26:02.937Z,101626.72
2022-10-11T00:28:31.276Z,101626.72
2022-10-11T00:30:59.190Z,101620.25
2022-10-11T00:33:27.563Z,101627.22
2022-10-11T00:35:55.404Z,101632.97
2022-10-11T00:38:23.213Z,101632.53
2022-10-11T00:40:51.022Z,101646.00
2022-10-11T00:43:24.693Z,101646.47
2022-10-11T00:46:25.948Z,101642.53
2022-10-11T00:49:02.066Z,101649.50
2022-10-11T00:51:42.709Z,101652.53
2022-10-11T00:54:16.485Z,101661.56
2022-10-11T00:56:50.928Z,101656.06
2022-10-11T00:59:25.389Z,101662.56
2022-10-11T01:01:53.644Z,101658.94
2022-10-11T01:04:21.513Z,101673.66
2022-10-11T01:06:51.678Z,101675.13
2022-10-11T01:09:22.175Z,101681.44
2022-10-11T01:11:53.208Z,101674.16
2022-10-11T01:14:59.520Z,101689.88
2022-10-11T01:17:38.764Z,101687.97
2022-10-11T01:20:50.212Z,101681.09
2022-10-11T01:24:13.783Z,101702.69
2022-10-11T01:27:32.809Z,101701.84
2022-10-11T01:30:26.673Z,101702.47
2022-10-11T01:33:14.162Z,101709.91
2022-10-11T01:35:50.218Z,101711.03
2022-10-11T01:38:27.762Z,101721.63
2022-10-11T01:41:03.309Z,101713.38
2022-10-11T01:43:33.015Z,101720.03
2022-10-11T01:46:04.488Z,101726.25
2022-10-11T01:48:32.491Z,101726.41
2022-10-11T01:51:04.339Z,101718.44
2022-10-11T01:53:57.821Z,101722.38
2022-10-11T01:56:53.108Z,101734.59
2022-10-11T01:59:42.217Z,101732.19
2022-10-11T02:02:33.853Z,101741.88
2022-10-11T02:05:14.332Z,101741.25
2022-10-11T02:07:51.318Z,101744.38
2022-10-11T02:10:29.058Z,101751.34
2022-10-11T02:13:08.044Z,101738.19
2022-10-11T02:15:41.951Z,101744.38
2022-10-11T02:18:17.341Z,101741.34
2022-10-11T02:20:48.273Z,101760.69
2022-10-11T02:23:23.812Z,101767.03
2022-10-11T02:25:54.819Z,101775.91
2022-10-11T02:28:29.259Z,101764.78
2022-10-11T02:31:01.187Z,101767.94
2022-10-11T02:33:38.676Z,101762.69
2022-10-11T02:36:15.333Z,101773.16
2022-10-11T02:38:51.451Z,101759.66
2022-10-11T02:41:28.417Z,101773.28
2022-10-11T02:44:03.430Z,101775.81
2022-10-11T02:46:32.795Z,101781.38
2022-10-11T02:49:03.403Z,101784.69
2022-10-11T02:51:32.981Z,101779.91
2022-10-11T02:54:01.422Z,101790.81
2022-10-11T02:56:29.328Z,101793.19
2022-10-11T02:58:57.141Z,101789.22
2022-10-11T03:01:25.073Z,101796.81
2022-10-11T03:03:53.023Z,101794.22
2022-10-11T03:06:22.421Z,101801.16
2022-10-11T03:08:50.312Z,101808.06
2022-10-11T03:11:18.194Z,101804.28
2022-10-11T03:13:45.944Z,101813.47
2022-10-11T03:16:14.156Z,101813.38
2022-10-11T03:18:43.353Z,101824.47
2022-10-11T03:21:11.481Z,101827.94
2022-10-11T03:23:42.550Z,101827.25
2022-10-11T03:26:10.654Z,101837.41
2022-10-11T03:28:38.669Z,101835.50
2022-10-11T03:31:06.986Z,101842.97
2022-10-11T03:33:34.871Z,101833.56
2022-10-11T03:36:03.047Z,101839.25
2022-10-11T03:38:31.398Z,101860.47
2022-10-11T03:41:00.579Z,101856.38
2022-10-11T03:43:28.472Z,101850.00
2022-10-11T03:45:56.296Z,101858.56
2022-10-11T03:48:24.374Z,101865.22
2022-10-11T03:50:52.173Z,101860.78
2022-10-11T03:53:19.982Z,101866.34
2022-10-11T03:55:47.781Z,101869.09
2022-10-11T03:58:17.134Z,101872.94
2022-10-11T04:00:44.908Z,101872.13
2022-10-11T04:03:12.673Z,101874.63
2022-10-11T04:05:40.464Z,101875.25
2022-10-11T04:08:11.934Z,101868.25
2022-10-11T04:10:40.712Z,101873.44
2022-10-11T04:13:10.796Z,101883.13
2022-10-11T04:15:41.294Z,101891.97
2022-10-11T04:18:10.336Z,101891.47
2022-10-11T04:20:38.204Z,101896.19
2022-10-11T04:23:06.263Z,101905.50
2022-10-11T04:25:34.116Z,101908.41
2022-10-11T04:28:01.955Z,101909.88
2022-10-11T04:30:29.830Z,101907.91
2022-10-11T04:32:59.567Z,101908.00
2022-10-11T04:35:27.484Z,101921.75
2022-10-11T04:37:55.359Z,101924.72
2022-10-11T04:40:23.294Z,101934.09
2022-10-11T04:42:53.621Z,101935.50
2022-10-11T04:45:22.193Z,101934.22
2022-10-11T04:47:50.204Z,101942.88
2022-10-11T04:50:20.217Z,101937.97
2022-10-11T04:52:48.179Z,101944.88
2022-10-11T04:55:16.105Z,101947.56
2022-10-11T04:57:43.956Z,101952.53
2022-10-11T05:00:13.568Z,101947.06
2022-10-11T05:02:41.416Z,101957.44
2022-10-11T05:05:10.803Z,101959.50
2022-10-11T05:07:40.024Z,101958.81
2022-10-11T05:10:09.925Z,101949.84
2022-10-11T05:12:37.988Z,101954.94
2022-10-11T05:15:07.899Z,101955.22
2022-10-11T05:17:36.210Z,101960.53
2022-10-11T05:20:04.338Z,101974.44
2022-10-11T05:22:54.649Z,101975.34
2022-10-11T05:25:22.528Z,101981.84
2022-10-11T05:27:50.505Z,101978.72
2022-10-11T05:30:18.564Z,101979.63
2022-10-11T05:32:46.470Z,101981.91
2022-10-11T05:35:14.597Z,101987.22
2022-10-11T05:37:42.409Z,101986.78
2022-10-11T05:40:13.220Z,101995.66
2022-10-11T05:42:41.164Z,102004.13
2022-10-11T05:45:10.269Z,102008.41
2022-10-11T05:47:38.091Z,102007.91
2022-10-11T05:50:06.719Z,102001.44
2022-10-11T05:52:34.646Z,102016.59
2022-10-11T05:55:03.422Z,102018.06
2022-10-11T05:57:32.646Z,102023.16
2022-10-11T06:00:01.736Z,102023.38
2022-10-11T06:02:29.707Z,102020.28
2022-10-11T06:04:57.580Z,102029.81
2022-10-11T06:07:25.423Z,102018.25
2022-10-11T06:09:53.486Z,102025.66
2022-10-11T06:12:21.893Z,102030.50
2022-10-11T06:14:51.100Z,102027.13
2022-10-11T06:17:18.926Z,102041.28
2022-10-11T06:19:46.760Z,102037.88
2022-10-11T06:22:14.564Z,102040.09
2022-10-11T06:24:42.346Z,102043.91
2022-10-11T06:27:10.268Z,102053.34
2022-10-11T06:29:38.161Z,102054.53
2022-10-11T06:32:07.524Z,102051.84
2022-10-11T06:34:35.371Z,102059.00
2022-10-11T06:37:03.209Z,102056.72
2022-10-11T06:39:31.319Z,102049.75
2022-10-11T06:41:59.122Z,102057.22
2022-10-11T06:44:27.680Z,102052.66
2022-10-11T06:46:55.550Z,102069.91
2022-10-11T06:49:25.505Z,102068.31
2022-10-11T06:51:53.354Z,102068.59
2022-10-11T06:54:21.220Z,102074.47
2022-10-11T06:56:49.093Z,102081.84
2022-10-11T06:59:16.981Z,102068.91
2022-10-11T07:01:44.930Z,102080.16
2022-10-11T07:04:12.843Z,102079.47
2022-10-11T07:06:44.640Z,102087.22
2022-10-11T07:09:12.573Z,102083.44
2022-10-11T07:11:40.411Z,102077.47
2022-10-11T07:14:08.553Z,102087.63
2022-10-11T07:16:38.146Z,102093.28
2022-10-11T07:19:07.876Z,102087.00
2022-10-11T07:21:36.441Z,102095.38
2022-10-11T07:24:06.795Z,102094.16
2022-10-11T07:26:38.907Z,102096.13
2022-10-11T07:29:08.260Z,102099.09
2022-10-11T07:31:38.492Z,102102.94
2022-10-11T07:34:06.552Z,102092.69
2022-10-11T07:36:34.659Z,102097.66
2022-10-11T07:39:07.021Z,102099.53
2022-10-11T07:41:35.025Z,102109.72
2022-10-11T07:44:03.285Z,102111.53
2022-10-11T07:46:31.585Z,102113.72
2022-10-11T07:48:59.811Z,102123.66
2022-10-11T07:51:27.979Z,102113.28
2022-10-11T07:53:58.244Z,102110.41
2022-10-11T07:56:29.925Z,102108.41
2022-10-11T07:59:01.425Z,102116.09
2022-10-11T08:01:31.153Z,102107.56
2022-10-11T08:03:59.964Z,102120.28
2022-10-11T08:06:32.639Z,102122.09
2022-10-11T08:09:02.419Z,102118.78
2022-10-11T08:11:35.906Z,102104.75
2022-10-11T08:14:08.744Z,102113.44
2022-10-11T08:16:36.851Z,102105.28
2022-10-11T08:19:05.234Z,102109.03
2022-10-11T08:21:33.908Z,102104.88
2022-10-11T08:24:04.626Z,102107.47
2022-10-11T08:26:35.090Z,102108.66
2022-10-11T08:29:03.993Z,102113.25
2022-10-11T08:31:33.170Z,102111.72
2022-10-11T08:34:01.193Z,102105.56
2022-10-11T08:36:29.239Z,102094.03
2022-10-11T08:38:57.092Z,102110.63
2022-10-11T08:41:38.993Z,102110.84
2022-10-11T08:44:27.038Z,102100.97
2022-10-11T08:47:02.882Z,102104.81
2022-10-11T08:49:34.667Z,102105.63
2022-10-11T08:52:07.175Z,102099.28
2022-10-11T08:54:47.729Z,102100.72
2022-10-11T08:57:22.235Z,102092.25
2022-10-11T08:59:55.123Z,102106.09
2022-10-11T09:03:06.407Z,102071.13
2022-10-11T09:05:37.622Z,102102.00
2022-10-11T09:08:19.873Z,102108.03
2022-10-11T09:11:10.153Z,102105.16
2022-10-11T09:14:13.071Z,102109.31
2022-10-11T09:17:02.806Z,102107.25
2022-10-11T09:19:57.136Z,102119.00
2022-10-11T09:22:43.013Z,102114.06
2022-10-11T09:25:24.331Z,102110.41
2022-10-11T09:28:07.645Z,102111.44
2022-10-11T09:30:47.555Z,102112.22
2022-10-11T09:33:22.222Z,102110.31
2022-10-11T09:35:53.448Z,102108.84
2022-10-11T09:38:39.930Z,102104.09
2022-10-11T09:41:18.062Z,102096.88
2022-10-11T09:43:51.960Z,102091.16
2022-10-11T09:46:25.828Z,102089.38
2022-10-11T09:48:58.482Z,102107.09
2022-10-11T09:51:29.049Z,102101.41
2022-10-11T09:54:00.405Z,102095.78
2022-10-11T09:56:31.180Z,102097.41
2022-10-11T09:59:27.253Z,102094.66
2022-10-11T10:02:21.702Z,102100.31
2022-10-11T10:05:02.787Z,102097.09
2022-10-11T10:07:33.078Z,102088.09
2022-10-11T10:10:21.148Z,102101.69
2022-10-11T10:12:55.252Z,102096.81
2022-10-11T10:15:26.523Z,102096.28
2022-10-11T10:17:55.919Z,102096.56
2022-10-11T10:20:27.540Z,102104.59
2022-10-11T10:22:55.997Z,102096.59
2022-10-11T10:25:34.591Z,102099.84
2022-10-11T10:28:05.917Z,102108.91
2022-10-11T10:30:35.643Z,102099.66
2022-10-11T10:33:08.839Z,102108.78
2022-10-11T10:35:44.613Z,102102.84
2022-10-11T10:38:26.396Z,102100.19
2022-10-11T10:40:59.087Z,102107.25
2022-10-11T10:43:33.631Z,102107.00
2022-10-11T10:46:34.271Z,102105.53
2022-10-11T10:49:52.696Z,102103.16
2022-10-11T10:52:33.681Z,102105.00
2022-10-11T10:55:24.498Z,102107.41
2022-10-11T10:58:07.197Z,102101.41
2022-10-11T11:00:45.220Z,102101.00
2022-10-11T11:03:25.163Z,102100.97
2022-10-11T11:06:03.640Z,102092.81
2022-10-11T11:08:54.223Z,102099.59
2022-10-11T11:11:48.017Z,102102.78
2022-10-11T11:14:33.234Z,102086.84
2022-10-11T11:17:20.211Z,102098.28
2022-10-11T11:20:09.750Z,102092.56
2022-10-11T11:22:51.401Z,102102.88
2022-10-11T11:25:32.279Z,102090.41
2022-10-11T11:28:27.253Z,102102.53
2022-10-11T11:31:09.016Z,102098.69
2022-10-11T11:33:55.651Z,102094.91
2022-10-11T11:36:36.987Z,102092.63
2022-10-11T11:39:15.620Z,102089.63
2022-10-11T11:41:51.671Z,102093.41
2022-10-11T11:44:30.652Z,102087.38
2022-10-11T11:47:04.978Z,102084.22
2022-10-11T11:49:38.206Z,102090.78
2022-10-11T11:52:13.859Z,102092.75
2022-10-11T11:54:52.988Z,102090.88
2022-10-11T11:57:37.580Z,102089.19
2022-10-11T12:00:14.570Z,102092.81
2022-10-11T12:02:51.402Z,102091.47
2022-10-11T12:05:25.701Z,102084.69
2022-10-11T12:07:59.669Z,102091.34
2022-10-11T12:10:38.248Z,102082.06
2022-10-11T12:13:32.441Z,102084.09
2022-10-11T12:16:10.910Z,102065.50
2022-10-11T12:18:52.855Z,102085.13
2022-10-11T12:21:29.631Z,102085.03
2022-10-11T12:23:59.672Z,102085.50
2022-10-11T12:26:42.373Z,102076.00
2022-10-11T12:29:48.272Z,102082.22
2022-10-11T12:32:51.991Z,102075.78
2022-10-11T12:35:48.570Z,102070.88
2022-10-11T12:38:23.223Z,102075.50
2022-10-11T12:40:54.560Z,102074.16
2022-10-11T12:44:20.982Z,102070.22
2022-10-11T12:47:32.065Z,102075.63
2022-10-11T12:50:18.938Z,102072.69
2022-10-11T12:53:02.829Z,102079.16
2022-10-11T12:55:51.587Z,102070.78
2022-10-11T12:58:30.396Z,102076.78
2022-10-11T13:01:16.701Z,102081.88
2022-10-11T13:03:50.907Z,102074.19
2022-10-11T13:06:25.205Z,102067.72
2022-10-11T13:08:57.778Z,102075.97
2022-10-11T13:11:33.751Z,102078.03
2022-10-11T13:14:10.851Z,102079.28
2022-10-11T13:16:52.005Z,102090.22
2022-10-11T13:19:24.320Z,102084.34
2022-10-11T13:21:56.751Z,102084.06
2022-10-11T13:24:27.902Z,102083.09
2022-10-11T13:26:58.026Z,102087.00
2022-10-11T13:29:34.413Z,102080.63
2022-10-11T13:32:09.012Z,102077.69
2022-10-11T13:34:41.791Z,102069.88
2022-10-11T13:37:19.082Z,102087.19
2022-10-11T13:39:48.891Z,102082.88
2022-10-11T13:42:18.553Z,102086.59
2022-10-11T13:44:48.429Z,102082.53
2022-10-11T13:47:26.722Z,102080.38
2022-10-11T13:50:10.953Z,102094.06
2022-10-11T13:52:58.729Z,102077.81
2022-10-11T13:55:31.618Z,102087.28
2022-10-11T13:58:03.149Z,102083.66
2022-10-11T14:00:36.242Z,102065.34
2022-10-11T14:03:18.654Z,102081.56
2022-10-11T14:05:56.839Z,102071.63
2022-10-11T14:08:35.690Z,102071.31
2022-10-11T14:11:06.485Z,102074.81
2022-10-11T14:13:38.920Z,102069.84
2022-10-11T14:16:10.213Z,102079.13
2022-10-11T14:18:48.844Z,102068.69
2022-10-11T14:21:36.205Z,102072.81
2022-10-11T14:24:07.896Z,102078.03
2022-10-11T14:26:40.220Z,102065.34
2022-10-11T14:29:14.904Z,102072.91
2022-10-11T14:31:43.082Z,102065.34
2022-10-11T14:34:20.331Z,102071.66
2022-10-11T14:36:49.427Z,102073.59
2022-10-11T14:39:21.053Z,102071.78
2022-10-11T14:41:50.003Z,102080.72
2022-10-11T14:44:19.110Z,102076.09
2022-10-11T14:46:49.609Z,102079.59
2022-10-11T14:49:22.305Z,102077.91
2022-10-11T14:51:52.413Z,102069.75
2022-10-11T14:54:23.979Z,102069.53
2022-10-11T14:56:54.106Z,102059.91
2022-10-11T14:59:25.158Z,102075.41
2022-10-11T15:01:54.468Z,102071.91
2022-10-11T15:04:34.252Z,102075.31
2022-10-11T15:07:02.343Z,102073.97
2022-10-11T15:09:31.460Z,102082.88
2022-10-11T15:11:59.785Z,102080.63
2022-10-11T15:14:29.302Z,102072.00
2022-10-11T15:16:59.776Z,102068.53
2022-10-11T15:19:28.988Z,102073.72
2022-10-11T15:21:56.878Z,102074.75
2022-10-11T15:24:24.641Z,102075.63
2022-10-11T15:26:52.480Z,102071.88
2022-10-11T15:29:21.994Z,102079.38
2022-10-11T15:31:50.269Z,102063.63
2022-10-11T15:34:18.316Z,102080.81
2022-10-11T15:36:50.313Z,102077.19
2022-10-11T15:39:28.344Z,102065.72
2022-10-11T15:41:56.205Z,102070.94
2022-10-11T15:44:24.094Z,102071.97
2022-10-11T15:46:52.109Z,102070.69
2022-10-11T15:49:20.177Z,102081.31
2022-10-11T15:51:49.354Z,102080.06
2022-10-11T15:54:17.279Z,102078.88
2022-10-11T15:56:45.236Z,102087.19
2022-10-11T15:59:13.066Z,102081.31
2022-10-11T16:01:41.086Z,102091.69
2022-10-11T16:04:09.007Z,102087.34
2022-10-11T16:06:36.886Z,102085.84
2022-10-11T16:09:06.063Z,102089.28
2022-10-11T16:11:34.029Z,102087.63
2022-10-11T16:14:01.922Z,102089.41
2022-10-11T16:16:29.879Z,102091.84
2022-10-11T16:18:57.695Z,102092.09
2022-10-11T16:21:25.513Z,102105.66
2022-10-11T16:23:53.472Z,102100.13
2022-10-11T16:26:22.683Z,102100.00
2022-10-11T16:28:50.567Z,102111.53
2022-10-11T16:31:21.040Z,102087.88
2022-10-11T16:33:50.292Z,102102.03
2022-10-11T16:36:35.144Z,102111.94
2022-10-11T16:39:08.558Z,102105.75
2022-10-11T16:41:38.129Z,102121.50
2022-10-11T16:44:07.034Z,102117.06
2022-10-11T16:46:35.776Z,102120.09
2022-10-11T16:49:04.754Z,102121.72
2022-10-11T16:51:32.707Z,102129.78
2022-10-11T16:54:00.625Z,102134.09
2022-10-11T16:56:28.563Z,102122.81
2022-10-11T16:58:58.004Z,102139.84
2022-10-11T17:01:26.674Z,102143.34
2022-10-11T17:03:55.727Z,102148.44
2022-10-11T17:06:24.524Z,102151.59
2022-10-11T17:08:52.669Z,102160.19
2022-10-11T17:11:22.192Z,102158.25
2022-10-11T17:13:53.369Z,102164.59
2022-10-11T17:16:24.053Z,102170.31
2022-10-11T17:18:52.559Z,102173.00
2022-10-11T17:21:22.992Z,102176.97
2022-10-11T17:23:51.519Z,102178.19
2022-10-11T17:26:21.750Z,102165.59
2022-10-11T17:28:50.050Z,102175.78
2022-10-11T17:31:18.541Z,102187.53
2022-10-11T17:33:48.153Z,102186.25
2022-10-11T17:36:22.279Z,102186.69
2022-10-11T17:38:52.591Z,102183.53
2022-10-11T17:41:20.862Z,102187.13
2022-10-11T17:43:49.572Z,102189.66
2022-10-11T17:46:19.642Z,102201.13
2022-10-11T17:48:49.282Z,102201.84
2022-10-11T17:51:20.338Z,102200.56
2022-10-11T17:53:50.778Z,102198.31
2022-10-11T17:56:27.672Z,102196.53
2022-10-11T17:58:59.546Z,102178.03
2022-10-11T18:01:30.356Z,102199.84
2022-10-11T18:04:03.085Z,102195.06
2022-10-11T18:06:33.942Z,102194.84
2022-10-11T18:09:04.412Z,102198.66
2022-10-11T18:11:32.946Z,102201.97
2022-10-11T18:14:00.843Z,102208.16
2022-10-11T18:16:31.708Z,102207.34
2022-10-11T18:19:03.463Z,102196.81
2022-10-11T18:21:34.597Z,102191.34
2022-10-11T18:24:05.963Z,102196.25
2022-10-11T18:26:34.460Z,102209.13
2022-10-11T18:29:02.544Z,102208.03
2022-10-11T18:31:35.010Z,102202.94
2022-10-11T18:34:05.232Z,102209.25
2022-10-11T18:36:34.035Z,102207.16
2022-10-11T18:39:05.954Z,102201.09
2022-10-11T18:41:35.557Z,102201.38
2022-10-11T18:44:07.558Z,102201.72
2022-10-11T18:46:36.812Z,102204.22
2022-10-11T18:49:06.311Z,102206.38
2022-10-11T18:51:37.697Z,102205.00
2022-10-11T18:54:07.887Z,102202.91
2022-10-11T18:56:37.110Z,102207.50
2022-10-11T18:59:07.066Z,102208.81
2022-10-11T19:01:38.565Z,102207.09
2022-10-11T19:04:11.534Z,102210.28
2022-10-11T19:06:42.981Z,102204.09
2022-10-11T19:09:13.878Z,102203.63
2022-10-11T19:11:43.057Z,102209.63
2022-10-11T19:14:14.758Z,102201.34
2022-10-11T19:16:46.229Z,102203.03
2022-10-11T19:19:15.465Z,102203.72
2022-10-11T19:21:43.706Z,102201.56
2022-10-11T19:24:12.202Z,102204.34
2022-10-11T19:26:42.514Z,102204.66
2022-10-11T19:29:14.653Z,102211.44
2022-10-11T19:31:45.180Z,102201.88
2022-10-11T19:34:12.974Z,102209.25
2022-10-11T19:36:43.191Z,102206.84
2022-10-11T19:39:13.569Z,102206.28
2022-10-11T19:41:42.597Z,102205.78
2022-10-11T19:44:10.886Z,102204.38
2022-10-11T19:46:51.131Z,102210.16
2022-10-11T19:49:22.407Z,102217.25
2022-10-11T19:51:52.067Z,102207.19
2022-10-11T19:54:20.285Z,102209.56
2022-10-11T19:56:48.426Z,102211.38
2022-10-11T19:59:16.842Z,102212.06
2022-10-11T20:01:51.081Z,102212.19
2022-10-11T20:04:50.919Z,102213.38
2022-10-11T20:07:10.662Z,102215.56
2022-10-11T20:09:38.446Z,102216.16
2022-10-11T20:12:06.688Z,102211.66
2022-10-11T20:14:34.464Z,102214.94
2022-10-11T20:17:02.347Z,102215.47
2022-10-11T20:19:31.560Z,102217.56
2022-10-11T20:22:00.284Z,102210.88
2022-10-11T20:24:33.466Z,102214.88
2022-10-11T20:27:03.785Z,102227.31
2022-10-11T20:29:31.517Z,102215.53
2022-10-11T20:31:59.922Z,102220.72
2022-10-11T20:34:28.619Z,102219.13
2022-10-11T20:36:56.536Z,102217.81
2022-10-11T20:39:24.713Z,102223.13
2022-10-11T20:41:53.873Z,102225.59
2022-10-11T20:44:21.648Z,102232.69
2022-10-11T20:46:49.448Z,102215.41
2022-10-11T20:49:19.835Z,102231.44
2022-10-11T20:51:47.717Z,102228.75
2022-10-11T20:54:16.176Z,102235.81
2022-10-11T20:56:44.374Z,102224.56
2022-10-11T20:59:13.812Z,102233.94
2022-10-11T21:01:43.077Z,102232.72
2022-10-11T21:04:19.521Z,102230.13
2022-10-11T21:06:49.304Z,102228.50
2022-10-11T21:09:17.553Z,102232.28
2022-10-11T21:11:45.542Z,102228.28
2022-10-11T21:14:14.996Z,102231.78
2022-10-11T21:16:43.104Z,102233.97
2022-10-11T21:19:16.143Z,102234.94
2022-10-11T21:21:49.674Z,102234.34
2022-10-11T21:24:20.487Z,102225.78
2022-10-11T21:26:48.789Z,102239.16
2022-10-11T21:29:18.622Z,102237.56
2022-10-11T21:31:46.564Z,102243.31
2022-10-11T21:34:14.445Z,102229.72
2022-10-11T21:36:42.523Z,102246.84
2022-10-11T21:39:10.538Z,102243.31
2022-10-11T21:41:38.383Z,102234.00
2022-10-11T21:44:06.681Z,102235.81
2022-10-11T21:47:04.904Z,102242.94
2022-10-11T21:49:24.293Z,102238.28
2022-10-11T21:51:52.459Z,102243.81
2022-10-11T21:54:20.293Z,102237.38
2022-10-11T21:56:48.512Z,102228.53
2022-10-11T21:59:16.605Z,102225.84
2022-10-11T22:01:45.860Z,102227.44
2022-10-11T22:04:13.710Z,102227.81
2022-10-11T22:06:41.792Z,102229.69
2022-10-11T22:09:10.023Z,102229.47
2022-10-11T22:11:38.316Z,102230.84
2022-10-11T22:14:06.346Z,102225.63
2022-10-11T22:16:35.199Z,102229.13
2022-10-11T22:19:05.398Z,102229.13
2022-10-11T22:21:33.307Z,102229.38
2022-10-11T22:24:01.172Z,102224.81
2022-10-11T22:26:31.185Z,102223.44
2022-10-11T22:29:00.166Z,102205.91
2022-10-11T22:31:30.752Z,102219.78
2022-10-11T22:34:01.336Z,102221.41
2022-10-11T22:36:31.646Z,102225.34
2022-10-11T22:38:59.617Z,102217.41
2022-10-11T22:41:27.558Z,102223.66
2022-10-11T22:43:55.394Z,102227.34
2022-10-11T22:46:23.265Z,102221.31
2022-10-11T22:48:51.060Z,102220.91
2022-10-11T22:51:18.919Z,102231.38
2022-10-11T22:53:48.533Z,102233.50
2022-10-11T22:56:16.490Z,102234.91
2022-10-11T22:58:44.379Z,102231.53
2022-10-11T23:01:15.487Z,102228.28
2022-10-11T23:03:43.943Z,102230.47
2022-10-11T23:06:11.792Z,102219.13
2022-10-11T23:08:39.604Z,102219.78
2022-10-11T23:11:09.222Z,102232.88
2022-10-11T23:13:37.266Z,102229.44
2022-10-11T23:16:09.725Z,102226.97
2022-10-11T23:18:38.345Z,102216.69
2022-10-11T23:21:07.904Z,102221.78
2022-10-11T23:23:36.166Z,102215.88
2022-10-11T23:26:07.699Z,102220.53
2022-10-11T23:28:38.068Z,102222.91
2022-10-11T23:31:11.849Z,102233.09
2022-10-11T23:33:40.034Z,102229.31
2022-10-11T23:36:16.035Z,102225.34
2022-10-11T23:38:44.028Z,102232.09
2022-10-11T23:41:12.539Z,102232.09
2022-10-11T23:43:41.788Z,102234.28
2022-10-11T23:46:09.556Z,102235.13
2022-10-11T23:48:37.361Z,102237.22
2022-10-11T23:51:05.344Z,102228.63
2022-10-11T23:53:33.238Z,102235.78
2022-10-11T23:56:01.015Z,102242.16
2022-10-11T23:58:28.972Z,102241.25
